sensor_id;sensor_type;location;lat;lon;timestamp;P1;durP1;ratioP1;P2;durP2;ratioP2
53521;SDS011;39398;48.382;9.802;2023-11-21T00:01:39;8.48;;;2.83;;
53521;SDS011;39398;48.382;9.802;2023-11-21T00:06:40;12.55;;;3.08;;
53521;SDS011;39398;48.382;9.802;2023-11-21T00:11:42;11.15;;;3.35;;
53521;SDS011;39398;48.382;9.802;2023-11-21T00:16:45;7.45;;;2.60;;
53521;SDS011;39398;48.382;9.802;2023-11-21T00:21:47;12.18;;;3.00;;
53521;SDS011;39398;48.382;9.802;2023-11-21T00:26:48;13.63;;;3.03;;
53521;SDS011;39398;48.382;9.802;2023-11-21T00:31:52;8.57;;;3.08;;
53521;SDS011;39398;48.382;9.802;2023-11-21T00:36:53;10.48;;;2.72;;
53521;SDS011;39398;48.382;9.802;2023-11-21T00:41:55;10.48;;;2.63;;
53521;SDS011;39398;48.382;9.802;2023-11-21T00:46:58;10.70;;;2.40;;
53521;SDS011;39398;48.382;9.802;2023-11-21T00:52:00;7.13;;;2.63;;
53521;SDS011;39398;48.382;9.802;2023-11-21T00:57:01;11.93;;;2.72;;
53521;SDS011;39398;48.382;9.802;2023-11-21T01:02:04;7.68;;;2.72;;
53521;SDS011;39398;48.382;9.802;2023-11-21T01:07:06;8.95;;;2.10;;
53521;SDS011;39398;48.382;9.802;2023-11-21T01:12:08;6.82;;;2.70;;
53521;SDS011;39398;48.382;9.802;2023-11-21T01:17:11;9.35;;;2.60;;
53521;SDS011;39398;48.382;9.802;2023-11-21T01:22:12;8.60;;;2.35;;
53521;SDS011;39398;48.382;9.802;2023-11-21T01:27:14;10.07;;;2.33;;
53521;SDS011;39398;48.382;9.802;2023-11-21T01:32:17;9.30;;;2.40;;
53521;SDS011;39398;48.382;9.802;2023-11-21T01:37:19;7.13;;;2.30;;
53521;SDS011;39398;48.382;9.802;2023-11-21T01:42:20;5.57;;;2.10;;
53521;SDS011;39398;48.382;9.802;2023-11-21T01:47:23;11.90;;;1.90;;
53521;SDS011;39398;48.382;9.802;2023-11-21T01:52:25;8.93;;;2.05;;
53521;SDS011;39398;48.382;9.802;2023-11-21T01:57:27;6.80;;;2.10;;
53521;SDS011;39398;48.382;9.802;2023-11-21T02:02:31;9.38;;;2.03;;
53521;SDS011;39398;48.382;9.802;2023-11-21T02:07:32;11.07;;;2.03;;
53521;SDS011;39398;48.382;9.802;2023-11-21T02:12:34;6.97;;;1.92;;
53521;SDS011;39398;48.382;9.802;2023-11-21T02:17:37;13.13;;;2.60;;
53521;SDS011;39398;48.382;9.802;2023-11-21T02:22:39;6.93;;;1.98;;
53521;SDS011;39398;48.382;9.802;2023-11-21T02:27:43;12.13;;;2.70;;
53521;SDS011;39398;48.382;9.802;2023-11-21T02:32:45;8.85;;;2.55;;
53521;SDS011;39398;48.382;9.802;2023-11-21T02:37:49;9.98;;;3.00;;
53521;SDS011;39398;48.382;9.802;2023-11-21T02:42:52;7.88;;;2.65;;
53521;SDS011;39398;48.382;9.802;2023-11-21T02:47:54;7.63;;;2.63;;
53521;SDS011;39398;48.382;9.802;2023-11-21T02:52:56;10.18;;;2.85;;
53521;SDS011;39398;48.382;9.802;2023-11-21T02:57:59;11.82;;;3.20;;
53521;SDS011;39398;48.382;9.802;2023-11-21T03:03:00;11.05;;;3.28;;
53521;SDS011;39398;48.382;9.802;2023-11-21T03:08:02;6.80;;;2.75;;
53521;SDS011;39398;48.382;9.802;2023-11-21T03:13:05;11.02;;;2.75;;
53521;SDS011;39398;48.382;9.802;2023-11-21T03:18:07;7.80;;;2.65;;
53521;SDS011;39398;48.382;9.802;2023-11-21T03:23:08;7.88;;;2.60;;
53521;SDS011;39398;48.382;9.802;2023-11-21T03:28:12;9.82;;;2.30;;
53521;SDS011;39398;48.382;9.802;2023-11-21T03:33:13;9.82;;;2.38;;
53521;SDS011;39398;48.382;9.802;2023-11-21T03:38:15;5.95;;;2.00;;
53521;SDS011;39398;48.382;9.802;2023-11-21T03:43:18;5.85;;;2.10;;
53521;SDS011;39398;48.382;9.802;2023-11-21T03:48:20;6.53;;;2.38;;
53521;SDS011;39398;48.382;9.802;2023-11-21T03:53:21;12.15;;;2.95;;
53521;SDS011;39398;48.382;9.802;2023-11-21T03:58:24;8.80;;;3.80;;
53521;SDS011;39398;48.382;9.802;2023-11-21T04:03:26;10.02;;;3.85;;
53521;SDS011;39398;48.382;9.802;2023-11-21T04:08:28;10.25;;;3.50;;
53521;SDS011;39398;48.382;9.802;2023-11-21T04:13:30;9.00;;;3.10;;
53521;SDS011;39398;48.382;9.802;2023-11-21T04:18:32;11.02;;;3.45;;
53521;SDS011;39398;48.382;9.802;2023-11-21T04:23:34;12.98;;;4.00;;
53521;SDS011;39398;48.382;9.802;2023-11-21T04:28:37;13.20;;;4.50;;
53521;SDS011;39398;48.382;9.802;2023-11-21T04:33:39;10.02;;;4.00;;
53521;SDS011;39398;48.382;9.802;2023-11-21T04:38:41;10.90;;;4.53;;
53521;SDS011;39398;48.382;9.802;2023-11-21T04:43:45;16.05;;;5.20;;
53521;SDS011;39398;48.382;9.802;2023-11-21T04:48:47;16.27;;;5.15;;
53521;SDS011;39398;48.382;9.802;2023-11-21T04:53:48;10.88;;;5.22;;
53521;SDS011;39398;48.382;9.802;2023-11-21T04:58:52;20.17;;;5.65;;
53521;SDS011;39398;48.382;9.802;2023-11-21T05:03:54;12.85;;;5.60;;
53521;SDS011;39398;48.382;9.802;2023-11-21T05:08:56;12.57;;;5.35;;
53521;SDS011;39398;48.382;9.802;2023-11-21T05:13:59;13.07;;;5.43;;
53521;SDS011;39398;48.382;9.802;2023-11-21T05:19:00;10.98;;;5.25;;
53521;SDS011;39398;48.382;9.802;2023-11-21T05:24:02;13.90;;;6.00;;
53521;SDS011;39398;48.382;9.802;2023-11-21T05:29:06;25.63;;;12.68;;
53521;SDS011;39398;48.382;9.802;2023-11-21T05:34:07;20.38;;;9.05;;
53521;SDS011;39398;48.382;9.802;2023-11-21T05:39:09;17.23;;;7.45;;
53521;SDS011;39398;48.382;9.802;2023-11-21T05:44:12;15.20;;;7.05;;
53521;SDS011;39398;48.382;9.802;2023-11-21T05:49:13;14.30;;;8.07;;
53521;SDS011;39398;48.382;9.802;2023-11-21T05:54:15;17.25;;;8.15;;
53521;SDS011;39398;48.382;9.802;2023-11-21T05:59:18;17.75;;;8.18;;
53521;SDS011;39398;48.382;9.802;2023-11-21T06:04:23;14.73;;;7.10;;
53521;SDS011;39398;48.382;9.802;2023-11-21T06:09:25;15.80;;;6.70;;
53521;SDS011;39398;48.382;9.802;2023-11-21T06:14:28;71.53;;;47.67;;
53521;SDS011;39398;48.382;9.802;2023-11-21T06:19:30;15.70;;;6.45;;
53521;SDS011;39398;48.382;9.802;2023-11-21T06:24:31;14.90;;;6.85;;
53521;SDS011;39398;48.382;9.802;2023-11-21T06:29:34;11.10;;;6.40;;
53521;SDS011;39398;48.382;9.802;2023-11-21T06:34:36;18.00;;;8.15;;
53521;SDS011;39398;48.382;9.802;2023-11-21T06:39:38;14.00;;;6.95;;
53521;SDS011;39398;48.382;9.802;2023-11-21T06:44:41;13.40;;;6.68;;
53521;SDS011;39398;48.382;9.802;2023-11-21T06:49:43;19.27;;;7.88;;
53521;SDS011;39398;48.382;9.802;2023-11-21T06:54:44;15.45;;;7.60;;
53521;SDS011;39398;48.382;9.802;2023-11-21T06:59:48;14.73;;;7.47;;
53521;SDS011;39398;48.382;9.802;2023-11-21T07:04:49;14.00;;;6.10;;
53521;SDS011;39398;48.382;9.802;2023-11-21T07:09:51;8.52;;;5.75;;
53521;SDS011;39398;48.382;9.802;2023-11-21T07:14:54;11.65;;;5.53;;
53521;SDS011;39398;48.382;9.802;2023-11-21T07:19:56;12.25;;;5.05;;
53521;SDS011;39398;48.382;9.802;2023-11-21T07:24:57;8.35;;;4.15;;
53521;SDS011;39398;48.382;9.802;2023-11-21T07:30:00;11.38;;;6.03;;
53521;SDS011;39398;48.382;9.802;2023-11-21T07:35:02;5.72;;;3.45;;
53521;SDS011;39398;48.382;9.802;2023-11-21T07:40:05;7.07;;;2.92;;
53521;SDS011;39398;48.382;9.802;2023-11-21T07:45:09;5.53;;;2.53;;
53521;SDS011;39398;48.382;9.802;2023-11-21T07:50:11;6.00;;;3.10;;
53521;SDS011;39398;48.382;9.802;2023-11-21T07:55:13;8.63;;;4.38;;
53521;SDS011;39398;48.382;9.802;2023-11-21T08:00:16;5.85;;;3.33;;
53521;SDS011;39398;48.382;9.802;2023-11-21T08:05:18;5.32;;;2.85;;
53521;SDS011;39398;48.382;9.802;2023-11-21T08:10:32;4.90;;;2.65;;
53521;SDS011;39398;48.382;9.802;2023-11-21T08:15:35;5.97;;;2.40;;
53521;SDS011;39398;48.382;9.802;2023-11-21T08:20:37;5.30;;;2.20;;
53521;SDS011;39398;48.382;9.802;2023-11-21T08:25:38;2.15;;;1.67;;
53521;SDS011;39398;48.382;9.802;2023-11-21T08:30:41;2.47;;;1.50;;
53521;SDS011;39398;48.382;9.802;2023-11-21T08:35:43;1.60;;;1.50;;
53521;SDS011;39398;48.382;9.802;2023-11-21T08:40:45;3.33;;;1.90;;
53521;SDS011;39398;48.382;9.802;2023-11-21T08:45:48;3.80;;;1.70;;
53521;SDS011;39398;48.382;9.802;2023-11-21T08:50:49;3.38;;;1.60;;
53521;SDS011;39398;48.382;9.802;2023-11-21T08:55:51;2.33;;;1.15;;
53521;SDS011;39398;48.382;9.802;2023-11-21T09:00:54;0.88;;;0.88;;
53521;SDS011;39398;48.382;9.802;2023-11-21T09:05:56;3.10;;;1.40;;
53521;SDS011;39398;48.382;9.802;2023-11-21T09:10:57;2.50;;;1.10;;
53521;SDS011;39398;48.382;9.802;2023-11-21T09:16:00;3.60;;;1.13;;
53521;SDS011;39398;48.382;9.802;2023-11-21T09:21:02;1.00;;;0.90;;
53521;SDS011;39398;48.382;9.802;2023-11-21T09:26:04;2.50;;;1.17;;
53521;SDS011;39398;48.382;9.802;2023-11-21T09:31:07;1.05;;;1.00;;
53521;SDS011;39398;48.382;9.802;2023-11-21T09:36:11;1.42;;;1.20;;
53521;SDS011;39398;48.382;9.802;2023-11-21T09:41:15;1.52;;;1.10;;
53521;SDS011;39398;48.382;9.802;2023-11-21T09:46:24;1.20;;;1.00;;
53521;SDS011;39398;48.382;9.802;2023-11-21T09:51:27;1.95;;;1.00;;
53521;SDS011;39398;48.382;9.802;2023-11-21T09:56:32;1.27;;;1.00;;
53521;SDS011;39398;48.382;9.802;2023-11-21T10:01:36;1.48;;;0.95;;
53521;SDS011;39398;48.382;9.802;2023-11-21T10:06:38;2.03;;;0.82;;
53521;SDS011;39398;48.382;9.802;2023-11-21T10:11:40;2.45;;;1.70;;
53521;SDS011;39398;48.382;9.802;2023-11-21T10:16:44;1.50;;;1.20;;
53521;SDS011;39398;48.382;9.802;2023-11-21T10:21:47;1.50;;;1.40;;
53521;SDS011;39398;48.382;9.802;2023-11-21T10:26:49;2.88;;;1.33;;
53521;SDS011;39398;48.382;9.802;2023-11-21T10:31:56;2.70;;;1.33;;
53521;SDS011;39398;48.382;9.802;2023-11-21T10:36:57;2.78;;;1.08;;
53521;SDS011;39398;48.382;9.802;2023-11-21T10:41:59;1.88;;;0.93;;
53521;SDS011;39398;48.382;9.802;2023-11-21T10:47:02;1.20;;;0.80;;
53521;SDS011;39398;48.382;9.802;2023-11-21T10:52:04;2.10;;;0.90;;
53521;SDS011;39398;48.382;9.802;2023-11-21T10:57:06;0.40;;;0.40;;
53521;SDS011;39398;48.382;9.802;2023-11-21T11:02:12;1.23;;;0.60;;
53521;SDS011;39398;48.382;9.802;2023-11-21T11:07:24;1.30;;;0.82;;
53521;SDS011;39398;48.382;9.802;2023-11-21T11:12:27;0.45;;;0.45;;
53521;SDS011;39398;48.382;9.802;2023-11-21T11:17:31;0.50;;;0.50;;
53521;SDS011;39398;48.382;9.802;2023-11-21T11:22:35;0.60;;;0.60;;
53521;SDS011;39398;48.382;9.802;2023-11-21T11:27:44;0.68;;;0.63;;
53521;SDS011;39398;48.382;9.802;2023-11-21T11:32:58;1.40;;;0.73;;
53521;SDS011;39398;48.382;9.802;2023-11-21T11:38:06;1.48;;;0.60;;
53521;SDS011;39398;48.382;9.802;2023-11-21T11:43:08;0.50;;;0.50;;
53521;SDS011;39398;48.382;9.802;2023-11-21T11:48:36;0.40;;;0.40;;
53521;SDS011;39398;48.382;9.802;2023-11-21T11:53:39;0.40;;;0.40;;
53521;SDS011;39398;48.382;9.802;2023-11-21T11:58:42;0.40;;;0.40;;
53521;SDS011;39398;48.382;9.802;2023-11-21T12:03:45;0.40;;;0.40;;
53521;SDS011;39398;48.382;9.802;2023-11-21T12:09:26;0.60;;;0.60;;
53521;SDS011;39398;48.382;9.802;2023-11-21T12:14:28;0.43;;;0.43;;
53521;SDS011;39398;48.382;9.802;2023-11-21T12:19:31;0.50;;;0.50;;
53521;SDS011;39398;48.382;9.802;2023-11-21T12:24:33;0.50;;;0.50;;
53521;SDS011;39398;48.382;9.802;2023-11-21T12:29:34;0.50;;;0.50;;
53521;SDS011;39398;48.382;9.802;2023-11-21T12:34:37;0.60;;;0.60;;
53521;SDS011;39398;48.382;9.802;2023-11-21T12:39:39;0.57;;;0.50;;
53521;SDS011;39398;48.382;9.802;2023-11-21T12:44:41;0.50;;;0.50;;
53521;SDS011;39398;48.382;9.802;2023-11-21T12:49:44;0.73;;;0.68;;
53521;SDS011;39398;48.382;9.802;2023-11-21T12:54:45;0.55;;;0.55;;
53521;SDS011;39398;48.382;9.802;2023-11-21T12:59:47;0.70;;;0.65;;
53521;SDS011;39398;48.382;9.802;2023-11-21T13:04:52;0.75;;;0.75;;
53521;SDS011;39398;48.382;9.802;2023-11-21T13:09:54;0.60;;;0.60;;
53521;SDS011;39398;48.382;9.802;2023-11-21T13:14:56;1.23;;;0.63;;
53521;SDS011;39398;48.382;9.802;2023-11-21T13:19:59;1.67;;;1.13;;
53521;SDS011;39398;48.382;9.802;2023-11-21T13:25:01;1.48;;;0.90;;
53521;SDS011;39398;48.382;9.802;2023-11-21T13:30:02;1.02;;;0.90;;
53521;SDS011;39398;48.382;9.802;2023-11-21T13:35:06;0.88;;;0.88;;
53521;SDS011;39398;48.382;9.802;2023-11-21T13:40:08;1.10;;;1.00;;
53521;SDS011;39398;48.382;9.802;2023-11-21T13:45:10;1.33;;;1.02;;
53521;SDS011;39398;48.382;9.802;2023-11-21T13:50:13;1.45;;;0.82;;
53521;SDS011;39398;48.382;9.802;2023-11-21T13:55:15;1.33;;;1.23;;
53521;SDS011;39398;48.382;9.802;2023-11-21T14:00:17;2.35;;;1.45;;
53521;SDS011;39398;48.382;9.802;2023-11-21T14:05:20;1.42;;;1.33;;
53521;SDS011;39398;48.382;9.802;2023-11-21T14:10:22;1.42;;;1.33;;
53521;SDS011;39398;48.382;9.802;2023-11-21T14:15:23;1.85;;;1.50;;
53521;SDS011;39398;48.382;9.802;2023-11-21T14:20:26;1.05;;;1.02;;
53521;SDS011;39398;48.382;9.802;2023-11-21T14:25:28;1.30;;;1.20;;
53521;SDS011;39398;48.382;9.802;2023-11-21T14:30:29;3.17;;;1.60;;
53521;SDS011;39398;48.382;9.802;2023-11-21T14:35:32;1.80;;;1.70;;
53521;SDS011;39398;48.382;9.802;2023-11-21T14:40:34;1.50;;;1.40;;
53521;SDS011;39398;48.382;9.802;2023-11-21T14:45:36;1.67;;;1.20;;
53521;SDS011;39398;48.382;9.802;2023-11-21T14:50:39;3.25;;;1.60;;
53521;SDS011;39398;48.382;9.802;2023-11-21T14:55:40;2.38;;;1.70;;
53521;SDS011;39398;48.382;9.802;2023-11-21T15:00:42;2.58;;;1.83;;
53521;SDS011;39398;48.382;9.802;2023-11-21T15:05:46;2.25;;;2.05;;
53521;SDS011;39398;48.382;9.802;2023-11-21T15:10:47;2.20;;;1.92;;
53521;SDS011;39398;48.382;9.802;2023-11-21T15:15:50;2.30;;;1.90;;
53521;SDS011;39398;48.382;9.802;2023-11-21T15:20:55;1.77;;;1.52;;
53521;SDS011;39398;48.382;9.802;2023-11-21T15:25:56;1.52;;;1.42;;
53521;SDS011;39398;48.382;9.802;2023-11-21T15:30:58;2.65;;;2.10;;
53521;SDS011;39398;48.382;9.802;2023-11-21T15:36:01;1.58;;;1.33;;
53521;SDS011;39398;48.382;9.802;2023-11-21T15:41:03;1.13;;;1.13;;
53521;SDS011;39398;48.382;9.802;2023-11-21T15:46:05;2.85;;;1.45;;
53521;SDS011;39398;48.382;9.802;2023-11-21T15:51:08;1.00;;;1.00;;
53521;SDS011;39398;48.382;9.802;2023-11-21T15:56:10;1.42;;;1.15;;
53521;SDS011;39398;48.382;9.802;2023-11-21T16:01:11;2.42;;;1.20;;
53521;SDS011;39398;48.382;9.802;2023-11-21T16:06:14;1.20;;;1.10;;
53521;SDS011;39398;48.382;9.802;2023-11-21T16:11:16;1.75;;;1.30;;
53521;SDS011;39398;48.382;9.802;2023-11-21T16:16:20;1.73;;;1.27;;
53521;SDS011;39398;48.382;9.802;2023-11-21T16:21:23;1.98;;;1.48;;
53521;SDS011;39398;48.382;9.802;2023-11-21T16:26:25;1.70;;;1.42;;
53521;SDS011;39398;48.382;9.802;2023-11-21T16:31:27;1.38;;;1.27;;
53521;SDS011;39398;48.382;9.802;2023-11-21T16:36:30;1.58;;;1.00;;
53521;SDS011;39398;48.382;9.802;2023-11-21T16:41:32;2.13;;;1.20;;
53521;SDS011;39398;48.382;9.802;2023-11-21T16:46:34;2.25;;;1.50;;
53521;SDS011;39398;48.382;9.802;2023-11-21T16:51:37;4.22;;;1.90;;
53521;SDS011;39398;48.382;9.802;2023-11-21T16:56:38;5.53;;;2.70;;
53521;SDS011;39398;48.382;9.802;2023-11-21T17:01:40;1.35;;;1.25;;
53521;SDS011;39398;48.382;9.802;2023-11-21T17:06:43;1.90;;;1.80;;
53521;SDS011;39398;48.382;9.802;2023-11-21T17:11:46;3.05;;;1.50;;
53521;SDS011;39398;48.382;9.802;2023-11-21T17:16:49;3.28;;;1.90;;
53521;SDS011;39398;48.382;9.802;2023-11-21T17:21:52;3.63;;;2.35;;
53521;SDS011;39398;48.382;9.802;2023-11-21T17:26:54;2.60;;;2.38;;
53521;SDS011;39398;48.382;9.802;2023-11-21T17:31:55;1.95;;;1.73;;
53521;SDS011;39398;48.382;9.802;2023-11-21T17:36:58;4.25;;;3.08;;
53521;SDS011;39398;48.382;9.802;2023-11-21T17:42:00;9.02;;;3.58;;
53521;SDS011;39398;48.382;9.802;2023-11-21T17:47:02;4.78;;;2.85;;
53521;SDS011;39398;48.382;9.802;2023-11-21T17:52:05;7.78;;;3.28;;
53521;SDS011;39398;48.382;9.802;2023-11-21T17:57:07;7.18;;;4.07;;
53521;SDS011;39398;48.382;9.802;2023-11-21T18:02:09;4.45;;;2.60;;
53521;SDS011;39398;48.382;9.802;2023-11-21T18:07:12;3.63;;;3.00;;
53521;SDS011;39398;48.382;9.802;2023-11-21T18:12:13;6.03;;;3.63;;
53521;SDS011;39398;48.382;9.802;2023-11-21T18:17:15;4.13;;;3.60;;
53521;SDS011;39398;48.382;9.802;2023-11-21T18:22:18;1.95;;;1.83;;
53521;SDS011;39398;48.382;9.802;2023-11-21T18:27:20;4.30;;;3.28;;
53521;SDS011;39398;48.382;9.802;2023-11-21T18:32:22;6.55;;;3.80;;
53521;SDS011;39398;48.382;9.802;2023-11-21T18:37:25;7.22;;;4.40;;
53521;SDS011;39398;48.382;9.802;2023-11-21T18:42:26;5.50;;;4.82;;
53521;SDS011;39398;48.382;9.802;2023-11-21T18:47:28;6.50;;;4.75;;
53521;SDS011;39398;48.382;9.802;2023-11-21T18:52:31;6.18;;;4.00;;
53521;SDS011;39398;48.382;9.802;2023-11-21T18:57:33;3.38;;;2.53;;
53521;SDS011;39398;48.382;9.802;2023-11-21T19:02:34;5.15;;;2.75;;
53521;SDS011;39398;48.382;9.802;2023-11-21T19:07:37;8.75;;;4.43;;
53521;SDS011;39398;48.382;9.802;2023-11-21T19:12:39;3.67;;;2.78;;
53521;SDS011;39398;48.382;9.802;2023-11-21T19:17:41;6.70;;;4.05;;
53521;SDS011;39398;48.382;9.802;2023-11-21T19:22:44;10.27;;;5.70;;
53521;SDS011;39398;48.382;9.802;2023-11-21T19:27:45;11.55;;;7.53;;
53521;SDS011;39398;48.382;9.802;2023-11-21T19:32:47;13.80;;;8.38;;
53521;SDS011;39398;48.382;9.802;2023-11-21T19:37:50;11.00;;;6.85;;
53521;SDS011;39398;48.382;9.802;2023-11-21T19:42:52;12.65;;;6.85;;
53521;SDS011;39398;48.382;9.802;2023-11-21T19:47:53;15.38;;;8.95;;
53521;SDS011;39398;48.382;9.802;2023-11-21T19:52:57;11.25;;;7.38;;
53521;SDS011;39398;48.382;9.802;2023-11-21T19:57:58;8.82;;;6.68;;
53521;SDS011;39398;48.382;9.802;2023-11-21T20:03:00;10.68;;;6.47;;
53521;SDS011;39398;48.382;9.802;2023-11-21T20:08:03;9.63;;;6.07;;
53521;SDS011;39398;48.382;9.802;2023-11-21T20:13:05;12.50;;;7.78;;
53521;SDS011;39398;48.382;9.802;2023-11-21T20:18:08;10.30;;;5.47;;
53521;SDS011;39398;48.382;9.802;2023-11-21T20:23:11;14.07;;;6.85;;
53521;SDS011;39398;48.382;9.802;2023-11-21T20:28:13;11.75;;;6.03;;
53521;SDS011;39398;48.382;9.802;2023-11-21T20:33:15;13.13;;;5.93;;
53521;SDS011;39398;48.382;9.802;2023-11-21T20:38:18;18.98;;;11.25;;
53521;SDS011;39398;48.382;9.802;2023-11-21T20:43:20;18.83;;;10.95;;
53521;SDS011;39398;48.382;9.802;2023-11-21T20:48:21;19.52;;;10.35;;
53521;SDS011;39398;48.382;9.802;2023-11-21T20:53:25;12.10;;;6.80;;
53521;SDS011;39398;48.382;9.802;2023-11-21T20:58:26;20.67;;;11.38;;
53521;SDS011;39398;48.382;9.802;2023-11-21T21:03:28;17.50;;;9.32;;
53521;SDS011;39398;48.382;9.802;2023-11-21T21:08:31;19.23;;;10.35;;
53521;SDS011;39398;48.382;9.802;2023-11-21T21:13:33;22.27;;;12.05;;
53521;SDS011;39398;48.382;9.802;2023-11-21T21:18:35;18.83;;;9.20;;
53521;SDS011;39398;48.382;9.802;2023-11-21T21:23:37;27.13;;;15.30;;
53521;SDS011;39398;48.382;9.802;2023-11-21T21:28:39;21.77;;;10.65;;
53521;SDS011;39398;48.382;9.802;2023-11-21T21:33:41;19.50;;;8.05;;
53521;SDS011;39398;48.382;9.802;2023-11-21T21:38:44;15.98;;;8.57;;
53521;SDS011;39398;48.382;9.802;2023-11-21T21:43:45;31.00;;;15.75;;
53521;SDS011;39398;48.382;9.802;2023-11-21T21:48:47;26.33;;;13.18;;
53521;SDS011;39398;48.382;9.802;2023-11-21T21:53:50;17.73;;;8.73;;
53521;SDS011;39398;48.382;9.802;2023-11-21T21:58:52;29.13;;;15.10;;
53521;SDS011;39398;48.382;9.802;2023-11-21T22:03:54;25.05;;;12.48;;
53521;SDS011;39398;48.382;9.802;2023-11-21T22:08:57;23.38;;;12.63;;
53521;SDS011;39398;48.382;9.802;2023-11-21T22:13:58;24.98;;;14.25;;
53521;SDS011;39398;48.382;9.802;2023-11-21T22:19:00;23.52;;;10.60;;
53521;SDS011;39398;48.382;9.802;2023-11-21T22:24:03;24.77;;;11.60;;
53521;SDS011;39398;48.382;9.802;2023-11-21T22:29:05;29.55;;;15.30;;
53521;SDS011;39398;48.382;9.802;2023-11-21T22:34:07;32.58;;;16.00;;
53521;SDS011;39398;48.382;9.802;2023-11-21T22:39:10;35.78;;;15.27;;
53521;SDS011;39398;48.382;9.802;2023-11-21T22:44:12;34.95;;;15.07;;
53521;SDS011;39398;48.382;9.802;2023-11-21T22:49:13;30.63;;;13.05;;
53521;SDS011;39398;48.382;9.802;2023-11-21T22:54:17;31.52;;;13.50;;
53521;SDS011;39398;48.382;9.802;2023-11-21T22:59:19;16.70;;;8.45;;
53521;SDS011;39398;48.382;9.802;2023-11-21T23:04:20;18.05;;;8.50;;
53521;SDS011;39398;48.382;9.802;2023-11-21T23:09:24;39.33;;;19.55;;
53521;SDS011;39398;48.382;9.802;2023-11-21T23:14:25;32.58;;;15.90;;
53521;SDS011;39398;48.382;9.802;2023-11-21T23:19:27;30.60;;;14.55;;
53521;SDS011;39398;48.382;9.802;2023-11-21T23:24:30;29.77;;;14.88;;
53521;SDS011;39398;48.382;9.802;2023-11-21T23:29:32;26.27;;;12.63;;
53521;SDS011;39398;48.382;9.802;2023-11-21T23:34:33;32.67;;;13.27;;
53521;SDS011;39398;48.382;9.802;2023-11-21T23:39:36;20.42;;;8.80;;
53521;SDS011;39398;48.382;9.802;2023-11-21T23:44:38;21.60;;;7.93;;
53521;SDS011;39398;48.382;9.802;2023-11-21T23:49:39;15.63;;;7.88;;
53521;SDS011;39398;48.382;9.802;2023-11-21T23:54:42;13.38;;;8.30;;
53521;SDS011;39398;48.382;9.802;2023-11-21T23:59:44;26.90;;;14.82;;
